sensor_id;sensor_type;location;lat;lon;timestamp;P1;durP1;ratioP1;P2;durP2;ratioP2
9260;SDS011;4667;42.726;23.252;2023-04-25T10:03:22;1.67;;;1.35;;
9260;SDS011;4667;42.726;23.252;2023-04-25T10:05:50;1.73;;;1.00;;
9260;SDS011;4667;42.726;23.252;2023-04-25T10:08:17;2.10;;;1.20;;
9260;SDS011;4667;42.726;23.252;2023-04-25T10:10:46;1.30;;;1.15;;
9260;SDS011;4667;42.726;23.252;2023-04-25T10:13:13;1.42;;;1.33;;
9260;SDS011;4667;42.726;23.252;2023-04-25T10:15:40;3.25;;;1.80;;
9260;SDS011;4667;42.726;23.252;2023-04-25T10:18:07;2.35;;;1.42;;
9260;SDS011;4667;42.726;23.252;2023-04-25T10:20:36;2.70;;;1.30;;
9260;SDS011;4667;42.726;23.252;2023-04-25T10:23:04;1.15;;;1.05;;
9260;SDS011;4667;42.726;23.252;2023-04-25T10:25:33;2.90;;;1.50;;
9260;SDS011;4667;42.726;23.252;2023-04-25T10:28:00;4.68;;;1.25;;
9260;SDS011;4667;42.726;23.252;2023-04-25T10:30:27;2.47;;;1.83;;
9260;SDS011;4667;42.726;23.252;2023-04-25T10:32:55;1.10;;;1.00;;
9260;SDS011;4667;42.726;23.252;2023-04-25T10:35:24;1.33;;;0.97;;
9260;SDS011;4667;42.726;23.252;2023-04-25T10:37:59;2.53;;;1.30;;
9260;SDS011;4667;42.726;23.252;2023-04-25T10:40:26;1.73;;;1.63;;
9260;SDS011;4667;42.726;23.252;2023-04-25T10:42:52;1.13;;;1.00;;
9260;SDS011;4667;42.726;23.252;2023-04-25T10:45:19;1.20;;;1.10;;
9260;SDS011;4667;42.726;23.252;2023-04-25T10:47:46;2.73;;;1.30;;
9260;SDS011;4667;42.726;23.252;2023-04-25T10:50:14;0.90;;;0.90;;
9260;SDS011;4667;42.726;23.252;2023-04-25T10:52:40;1.05;;;0.95;;
9260;SDS011;4667;42.726;23.252;2023-04-25T10:55:08;1.15;;;0.70;;
9260;SDS011;4667;42.726;23.252;2023-04-25T10:57:39;2.35;;;1.08;;
9260;SDS011;4667;42.726;23.252;2023-04-25T11:00:06;2.25;;;1.23;;
9260;SDS011;4667;42.726;23.252;2023-04-25T11:02:36;0.98;;;0.75;;
9260;SDS011;4667;42.726;23.252;2023-04-25T11:05:03;11.95;;;0.90;;
9260;SDS011;4667;42.726;23.252;2023-04-25T11:07:33;1.25;;;0.77;;
9260;SDS011;4667;42.726;23.252;2023-04-25T11:10:01;3.88;;;0.90;;
9260;SDS011;4667;42.726;23.252;2023-04-25T11:12:29;1.25;;;0.80;;
9260;SDS011;4667;42.726;23.252;2023-04-25T11:14:59;1.25;;;0.80;;
9260;SDS011;4667;42.726;23.252;2023-04-25T11:17:26;1.08;;;0.88;;
9260;SDS011;4667;42.726;23.252;2023-04-25T11:19:53;0.82;;;0.70;;
9260;SDS011;4667;42.726;23.252;2023-04-25T11:22:20;0.65;;;0.65;;
9260;SDS011;4667;42.726;23.252;2023-04-25T11:24:47;3.17;;;0.80;;
9260;SDS011;4667;42.726;23.252;2023-04-25T11:27:13;0.95;;;0.80;;
9260;SDS011;4667;42.726;23.252;2023-04-25T11:29:42;1.75;;;1.20;;
9260;SDS011;4667;42.726;23.252;2023-04-25T11:32:08;1.88;;;0.88;;
9260;SDS011;4667;42.726;23.252;2023-04-25T11:34:35;1.17;;;0.90;;
9260;SDS011;4667;42.726;23.252;2023-04-25T11:37:02;0.83;;;0.67;;
9260;SDS011;4667;42.726;23.252;2023-04-25T11:39:29;1.30;;;1.20;;
9260;SDS011;4667;42.726;23.252;2023-04-25T11:41:56;1.37;;;1.10;;
9260;SDS011;4667;42.726;23.252;2023-04-25T11:44:22;1.77;;;1.17;;
9260;SDS011;4667;42.726;23.252;2023-04-25T11:46:50;1.10;;;1.00;;
9260;SDS011;4667;42.726;23.252;2023-04-25T11:49:16;2.10;;;0.80;;
9260;SDS011;4667;42.726;23.252;2023-04-25T11:51:44;0.80;;;0.80;;
9260;SDS011;4667;42.726;23.252;2023-04-25T11:54:10;2.97;;;0.97;;
9260;SDS011;4667;42.726;23.252;2023-04-25T11:56:37;1.00;;;0.77;;
9260;SDS011;4667;42.726;23.252;2023-04-25T11:59:06;0.83;;;0.80;;
9260;SDS011;4667;42.726;23.252;2023-04-25T12:01:33;1.10;;;1.00;;
9260;SDS011;4667;42.726;23.252;2023-04-25T12:04:10;0.90;;;0.80;;
9260;SDS011;4667;42.726;23.252;2023-04-25T12:06:37;1.40;;;0.80;;
9260;SDS011;4667;42.726;23.252;2023-04-25T12:09:07;0.87;;;0.80;;
9260;SDS011;4667;42.726;23.252;2023-04-25T12:11:40;1.33;;;0.90;;
9260;SDS011;4667;42.726;23.252;2023-04-25T12:14:06;1.10;;;0.90;;
9260;SDS011;4667;42.726;23.252;2023-04-25T12:16:39;1.03;;;1.00;;
9260;SDS011;4667;42.726;23.252;2023-04-25T12:19:06;1.13;;;0.90;;
9260;SDS011;4667;42.726;23.252;2023-04-25T12:21:34;1.87;;;1.10;;
9260;SDS011;4667;42.726;23.252;2023-04-25T12:24:10;1.97;;;1.30;;
9260;SDS011;4667;42.726;23.252;2023-04-25T12:26:46;3.53;;;1.17;;
9260;SDS011;4667;42.726;23.252;2023-04-25T12:29:15;1.77;;;1.03;;
9260;SDS011;4667;42.726;23.252;2023-04-25T12:31:42;1.10;;;1.00;;
9260;SDS011;4667;42.726;23.252;2023-04-25T12:34:08;1.17;;;0.90;;
9260;SDS011;4667;42.726;23.252;2023-04-25T12:36:36;1.87;;;1.17;;
9260;SDS011;4667;42.726;23.252;2023-04-25T12:39:03;1.20;;;1.00;;
9260;SDS011;4667;42.726;23.252;2023-04-25T12:41:30;1.83;;;1.60;;
9260;SDS011;4667;42.726;23.252;2023-04-25T12:43:59;1.00;;;0.80;;
9260;SDS011;4667;42.726;23.252;2023-04-25T12:46:25;1.23;;;1.13;;
9260;SDS011;4667;42.726;23.252;2023-04-25T12:48:52;3.90;;;1.27;;
9260;SDS011;4667;42.726;23.252;2023-04-25T12:51:19;1.30;;;1.00;;
9260;SDS011;4667;42.726;23.252;2023-04-25T12:53:46;1.77;;;1.30;;
9260;SDS011;4667;42.726;23.252;2023-04-25T12:56:13;1.17;;;1.07;;
9260;SDS011;4667;42.726;23.252;2023-04-25T12:58:40;2.13;;;1.30;;
9260;SDS011;4667;42.726;23.252;2023-04-25T13:01:08;2.43;;;1.97;;
9260;SDS011;4667;42.726;23.252;2023-04-25T13:03:35;1.47;;;1.37;;
9260;SDS011;4667;42.726;23.252;2023-04-25T13:06:01;1.77;;;1.30;;
9260;SDS011;4667;42.726;23.252;2023-04-25T13:08:28;1.50;;;1.40;;
9260;SDS011;4667;42.726;23.252;2023-04-25T13:10:57;1.30;;;1.20;;
9260;SDS011;4667;42.726;23.252;2023-04-25T13:13:23;2.30;;;1.30;;
9260;SDS011;4667;42.726;23.252;2023-04-25T13:15:52;1.50;;;1.40;;
9260;SDS011;4667;42.726;23.252;2023-04-25T13:18:18;2.27;;;1.50;;
9260;SDS011;4667;42.726;23.252;2023-04-25T13:20:45;2.90;;;1.77;;
9260;SDS011;4667;42.726;23.252;2023-04-25T13:23:12;1.73;;;1.40;;
9260;SDS011;4667;42.726;23.252;2023-04-25T13:25:38;1.70;;;1.60;;
9260;SDS011;4667;42.726;23.252;2023-04-25T13:28:06;1.53;;;1.30;;
9260;SDS011;4667;42.726;23.252;2023-04-25T13:30:33;1.60;;;1.20;;
9260;SDS011;4667;42.726;23.252;2023-04-25T13:32:59;1.97;;;1.40;;
9260;SDS011;4667;42.726;23.252;2023-04-25T13:35:28;3.83;;;1.53;;
9260;SDS011;4667;42.726;23.252;2023-04-25T13:37:54;2.60;;;1.57;;
9260;SDS011;4667;42.726;23.252;2023-04-25T13:40:21;3.97;;;1.77;;
9260;SDS011;4667;42.726;23.252;2023-04-25T13:42:48;2.20;;;1.60;;
9260;SDS011;4667;42.726;23.252;2023-04-25T13:45:17;2.93;;;1.80;;
9260;SDS011;4667;42.726;23.252;2023-04-25T13:47:44;2.27;;;1.47;;
9260;SDS011;4667;42.726;23.252;2023-04-25T13:50:10;1.83;;;1.53;;
9260;SDS011;4667;42.726;23.252;2023-04-25T13:52:37;3.40;;;1.70;;
9260;SDS011;4667;42.726;23.252;2023-04-25T13:55:04;1.30;;;1.20;;
9260;SDS011;4667;42.726;23.252;2023-04-25T13:57:32;1.80;;;1.27;;
9260;SDS011;4667;42.726;23.252;2023-04-25T14:00:00;1.50;;;1.30;;
9260;SDS011;4667;42.726;23.252;2023-04-25T14:02:31;4.17;;;1.47;;
9260;SDS011;4667;42.726;23.252;2023-04-25T14:04:58;1.87;;;1.37;;
9260;SDS011;4667;42.726;23.252;2023-04-25T14:07:25;1.80;;;1.70;;
9260;SDS011;4667;42.726;23.252;2023-04-25T14:09:52;1.97;;;1.50;;
9260;SDS011;4667;42.726;23.252;2023-04-25T14:12:22;1.50;;;1.40;;
9260;SDS011;4667;42.726;23.252;2023-04-25T14:14:49;2.27;;;1.60;;
9260;SDS011;4667;42.726;23.252;2023-04-25T14:17:16;1.43;;;1.30;;
9260;SDS011;4667;42.726;23.252;2023-04-25T14:19:44;1.07;;;0.87;;
9260;SDS011;4667;42.726;23.252;2023-04-25T14:22:13;1.20;;;1.10;;
9260;SDS011;4667;42.726;23.252;2023-04-25T14:24:40;1.50;;;1.40;;
9260;SDS011;4667;42.726;23.252;2023-04-25T14:27:07;1.30;;;1.10;;
9260;SDS011;4667;42.726;23.252;2023-04-25T14:29:34;1.20;;;1.10;;
9260;SDS011;4667;42.726;23.252;2023-04-25T14:32:00;1.27;;;1.00;;
9260;SDS011;4667;42.726;23.252;2023-04-25T14:34:27;1.20;;;1.00;;
9260;SDS011;4667;42.726;23.252;2023-04-25T14:36:56;3.87;;;1.50;;
9260;SDS011;4667;42.726;23.252;2023-04-25T14:39:25;3.23;;;1.33;;
9260;SDS011;4667;42.726;23.252;2023-04-25T14:41:51;2.20;;;1.60;;
9260;SDS011;4667;42.726;23.252;2023-04-25T14:44:18;2.23;;;1.10;;
9260;SDS011;4667;42.726;23.252;2023-04-25T14:46:45;1.37;;;1.20;;
9260;SDS011;4667;42.726;23.252;2023-04-25T14:49:11;1.23;;;1.10;;
9260;SDS011;4667;42.726;23.252;2023-04-25T14:51:38;1.07;;;0.90;;
9260;SDS011;4667;42.726;23.252;2023-04-25T14:54:06;0.97;;;0.80;;
9260;SDS011;4667;42.726;23.252;2023-04-25T14:56:32;1.50;;;1.00;;
9260;SDS011;4667;42.726;23.252;2023-04-25T14:59:13;1.23;;;0.80;;
9260;SDS011;4667;42.726;23.252;2023-04-25T15:01:39;1.73;;;1.40;;
9260;SDS011;4667;42.726;23.252;2023-04-25T15:04:09;1.50;;;1.17;;
9260;SDS011;4667;42.726;23.252;2023-04-25T15:06:35;1.20;;;0.93;;
9260;SDS011;4667;42.726;23.252;2023-04-25T15:09:03;1.30;;;0.93;;
9260;SDS011;4667;42.726;23.252;2023-04-25T15:11:31;1.50;;;1.10;;
9260;SDS011;4667;42.726;23.252;2023-04-25T15:13:57;1.43;;;1.20;;
9260;SDS011;4667;42.726;23.252;2023-04-25T15:16:24;0.93;;;0.80;;
9260;SDS011;4667;42.726;23.252;2023-04-25T15:18:51;1.00;;;0.90;;
9260;SDS011;4667;42.726;23.252;2023-04-25T15:21:17;1.03;;;0.80;;
9260;SDS011;4667;42.726;23.252;2023-04-25T15:23:45;1.33;;;0.90;;
9260;SDS011;4667;42.726;23.252;2023-04-25T15:26:14;0.90;;;0.90;;
9260;SDS011;4667;42.726;23.252;2023-04-25T15:28:45;1.10;;;1.00;;
9260;SDS011;4667;42.726;23.252;2023-04-25T15:31:12;1.83;;;1.33;;
9260;SDS011;4667;42.726;23.252;2023-04-25T15:33:39;2.67;;;1.03;;
9260;SDS011;4667;42.726;23.252;2023-04-25T15:36:08;1.10;;;1.00;;
9260;SDS011;4667;42.726;23.252;2023-04-25T15:38:35;1.10;;;1.00;;
9260;SDS011;4667;42.726;23.252;2023-04-25T15:41:03;1.10;;;1.00;;
9260;SDS011;4667;42.726;23.252;2023-04-25T15:43:31;1.60;;;1.10;;
9260;SDS011;4667;42.726;23.252;2023-04-25T15:46:02;1.70;;;1.23;;
9260;SDS011;4667;42.726;23.252;2023-04-25T15:48:32;3.07;;;1.30;;
9260;SDS011;4667;42.726;23.252;2023-04-25T15:51:00;1.20;;;1.10;;
9260;SDS011;4667;42.726;23.252;2023-04-25T15:53:26;1.43;;;1.07;;
9260;SDS011;4667;42.726;23.252;2023-04-25T15:55:53;2.63;;;1.50;;
9260;SDS011;4667;42.726;23.252;2023-04-25T15:58:19;1.30;;;1.20;;
9260;SDS011;4667;42.726;23.252;2023-04-25T16:00:46;3.10;;;1.57;;
9260;SDS011;4667;42.726;23.252;2023-04-25T16:03:17;1.40;;;0.93;;
9260;SDS011;4667;42.726;23.252;2023-04-25T16:05:43;1.67;;;1.20;;
9260;SDS011;4667;42.726;23.252;2023-04-25T16:08:10;1.47;;;1.33;;
9260;SDS011;4667;42.726;23.252;2023-04-25T16:10:36;1.67;;;1.23;;
9260;SDS011;4667;42.726;23.252;2023-04-25T16:13:03;1.40;;;1.30;;
9260;SDS011;4667;42.726;23.252;2023-04-25T16:15:29;2.13;;;1.30;;
9260;SDS011;4667;42.726;23.252;2023-04-25T16:17:56;2.33;;;1.47;;
9260;SDS011;4667;42.726;23.252;2023-04-25T16:20:24;1.20;;;1.10;;
9260;SDS011;4667;42.726;23.252;2023-04-25T16:22:51;1.13;;;1.03;;
9260;SDS011;4667;42.726;23.252;2023-04-25T16:25:19;2.60;;;1.30;;
9260;SDS011;4667;42.726;23.252;2023-04-25T16:27:46;1.90;;;1.73;;
9260;SDS011;4667;42.726;23.252;2023-04-25T16:30:12;3.33;;;1.90;;
9260;SDS011;4667;42.726;23.252;2023-04-25T16:32:53;1.63;;;1.53;;
9260;SDS011;4667;42.726;23.252;2023-04-25T16:46:39;3.90;;;3.10;;
9260;SDS011;4667;42.726;23.252;2023-04-25T16:49:08;5.03;;;2.90;;
9260;SDS011;4667;42.726;23.252;2023-04-25T16:51:49;5.23;;;3.37;;
9260;SDS011;4667;42.726;23.252;2023-04-25T16:54:15;7.17;;;4.20;;
9260;SDS011;4667;42.726;23.252;2023-04-25T16:56:43;4.93;;;3.90;;
9260;SDS011;4667;42.726;23.252;2023-04-25T16:59:12;4.80;;;3.60;;
9260;SDS011;4667;42.726;23.252;2023-04-25T17:04:55;3.40;;;3.10;;
9260;SDS011;4667;42.726;23.252;2023-04-25T17:07:25;3.23;;;2.73;;
9260;SDS011;4667;42.726;23.252;2023-04-25T17:09:58;3.13;;;2.63;;
9260;SDS011;4667;42.726;23.252;2023-04-25T17:12:40;2.13;;;1.93;;
9260;SDS011;4667;42.726;23.252;2023-04-25T17:15:26;2.70;;;2.10;;
9260;SDS011;4667;42.726;23.252;2023-04-25T17:17:55;2.10;;;1.90;;
9260;SDS011;4667;42.726;23.252;2023-04-25T18:05:12;1.70;;;1.60;;
9260;SDS011;4667;42.726;23.252;2023-04-25T18:07:53;2.07;;;1.70;;
9260;SDS011;4667;42.726;23.252;2023-04-25T18:10:33;2.03;;;1.43;;
9260;SDS011;4667;42.726;23.252;2023-04-25T18:13:00;1.97;;;1.80;;
9260;SDS011;4667;42.726;23.252;2023-04-25T18:15:27;1.60;;;1.50;;
9260;SDS011;4667;42.726;23.252;2023-04-25T18:17:53;1.70;;;1.33;;
9260;SDS011;4667;42.726;23.252;2023-04-25T18:20:23;2.73;;;2.40;;
9260;SDS011;4667;42.726;23.252;2023-04-25T18:22:51;6.97;;;5.53;;
9260;SDS011;4667;42.726;23.252;2023-04-25T18:25:31;7.57;;;6.67;;
9260;SDS011;4667;42.726;23.252;2023-04-25T18:36:00;13.03;;;8.60;;
9260;SDS011;4667;42.726;23.252;2023-04-25T18:38:29;8.30;;;6.53;;
9260;SDS011;4667;42.726;23.252;2023-04-25T18:40:58;5.87;;;4.23;;
9260;SDS011;4667;42.726;23.252;2023-04-25T18:43:38;4.40;;;4.00;;
9260;SDS011;4667;42.726;23.252;2023-04-25T18:48:54;7.93;;;7.10;;
9260;SDS011;4667;42.726;23.252;2023-04-25T19:14:59;10.47;;;7.07;;
9260;SDS011;4667;42.726;23.252;2023-04-25T19:17:26;7.90;;;7.10;;
9260;SDS011;4667;42.726;23.252;2023-04-25T19:19:54;4.80;;;3.57;;
9260;SDS011;4667;42.726;23.252;2023-04-25T19:22:35;4.23;;;3.07;;
9260;SDS011;4667;42.726;23.252;2023-04-25T19:25:18;3.80;;;3.10;;
9260;SDS011;4667;42.726;23.252;2023-04-25T19:27:58;3.00;;;2.30;;
9260;SDS011;4667;42.726;23.252;2023-04-25T19:30:28;2.97;;;2.50;;
9260;SDS011;4667;42.726;23.252;2023-04-25T19:33:09;2.67;;;2.47;;
9260;SDS011;4667;42.726;23.252;2023-04-25T19:35:38;2.07;;;1.87;;
9260;SDS011;4667;42.726;23.252;2023-04-25T19:38:19;2.20;;;2.00;;
9260;SDS011;4667;42.726;23.252;2023-04-25T19:41:00;2.73;;;2.50;;
9260;SDS011;4667;42.726;23.252;2023-04-25T19:43:27;2.23;;;1.93;;
9260;SDS011;4667;42.726;23.252;2023-04-25T19:46:05;3.10;;;2.63;;
9260;SDS011;4667;42.726;23.252;2023-04-25T19:48:34;2.10;;;1.90;;
9260;SDS011;4667;42.726;23.252;2023-04-25T19:51:16;2.90;;;2.20;;
9260;SDS011;4667;42.726;23.252;2023-04-25T19:53:43;4.47;;;2.47;;
9260;SDS011;4667;42.726;23.252;2023-04-25T19:56:20;1.67;;;1.40;;
9260;SDS011;4667;42.726;23.252;2023-04-25T19:58:49;2.43;;;2.10;;
9260;SDS011;4667;42.726;23.252;2023-04-25T20:15:42;3.30;;;2.43;;
9260;SDS011;4667;42.726;23.252;2023-04-25T20:18:22;3.37;;;2.47;;
9260;SDS011;4667;42.726;23.252;2023-04-25T20:20:52;2.97;;;2.10;;
9260;SDS011;4667;42.726;23.252;2023-04-25T20:23:33;1.60;;;1.50;;
9260;SDS011;4667;42.726;23.252;2023-04-25T20:26:00;2.33;;;1.93;;
9260;SDS011;4667;42.726;23.252;2023-04-25T20:28:40;2.93;;;1.67;;
9260;SDS011;4667;42.726;23.252;2023-04-25T20:37:07;2.10;;;1.90;;
9260;SDS011;4667;42.726;23.252;2023-04-25T20:39:36;3.60;;;2.30;;
9260;SDS011;4667;42.726;23.252;2023-04-25T20:42:03;2.17;;;2.00;;
9260;SDS011;4667;42.726;23.252;2023-04-25T20:44:31;2.60;;;2.03;;
9260;SDS011;4667;42.726;23.252;2023-04-25T20:46:58;2.13;;;1.80;;
9260;SDS011;4667;42.726;23.252;2023-04-25T20:49:26;5.03;;;2.23;;
9260;SDS011;4667;42.726;23.252;2023-04-25T20:51:58;2.10;;;1.90;;
9260;SDS011;4667;42.726;23.252;2023-04-25T21:03:01;3.60;;;1.97;;
9260;SDS011;4667;42.726;23.252;2023-04-25T21:05:29;3.30;;;2.17;;
9260;SDS011;4667;42.726;23.252;2023-04-25T21:07:56;2.50;;;2.30;;
9260;SDS011;4667;42.726;23.252;2023-04-25T21:10:23;5.77;;;2.37;;
9260;SDS011;4667;42.726;23.252;2023-04-25T21:12:50;4.03;;;2.70;;
9260;SDS011;4667;42.726;23.252;2023-04-25T21:15:16;3.07;;;2.43;;
9260;SDS011;4667;42.726;23.252;2023-04-25T21:17:44;4.20;;;2.60;;
9260;SDS011;4667;42.726;23.252;2023-04-25T21:20:13;2.40;;;1.93;;
9260;SDS011;4667;42.726;23.252;2023-04-25T21:22:41;2.33;;;1.87;;
9260;SDS011;4667;42.726;23.252;2023-04-25T21:25:14;1.67;;;1.57;;
9260;SDS011;4667;42.726;23.252;2023-04-25T21:27:45;2.33;;;1.80;;
9260;SDS011;4667;42.726;23.252;2023-04-25T21:30:26;1.80;;;1.70;;
9260;SDS011;4667;42.726;23.252;2023-04-25T21:32:57;2.10;;;1.90;;
9260;SDS011;4667;42.726;23.252;2023-04-25T21:35:25;2.70;;;1.90;;
9260;SDS011;4667;42.726;23.252;2023-04-25T21:37:51;3.93;;;1.80;;
9260;SDS011;4667;42.726;23.252;2023-04-25T21:40:19;2.40;;;1.90;;
9260;SDS011;4667;42.726;23.252;2023-04-25T21:42:46;3.93;;;2.17;;
9260;SDS011;4667;42.726;23.252;2023-04-25T21:45:15;3.47;;;2.20;;
9260;SDS011;4667;42.726;23.252;2023-04-25T21:47:42;2.27;;;2.07;;
9260;SDS011;4667;42.726;23.252;2023-04-25T21:50:10;2.43;;;2.20;;
9260;SDS011;4667;42.726;23.252;2023-04-25T21:52:38;3.23;;;2.30;;
9260;SDS011;4667;42.726;23.252;2023-04-25T21:55:05;3.30;;;2.30;;
9260;SDS011;4667;42.726;23.252;2023-04-25T21:57:32;3.17;;;2.37;;
9260;SDS011;4667;42.726;23.252;2023-04-25T21:59:58;4.17;;;2.93;;
9260;SDS011;4667;42.726;23.252;2023-04-25T22:02:25;3.73;;;2.50;;
9260;SDS011;4667;42.726;23.252;2023-04-25T22:04:53;3.50;;;2.27;;
9260;SDS011;4667;42.726;23.252;2023-04-25T22:07:20;2.23;;;2.03;;
9260;SDS011;4667;42.726;23.252;2023-04-25T22:09:48;2.60;;;2.40;;
9260;SDS011;4667;42.726;23.252;2023-04-25T22:12:15;4.33;;;2.70;;
9260;SDS011;4667;42.726;23.252;2023-04-25T22:14:41;3.00;;;2.37;;
9260;SDS011;4667;42.726;23.252;2023-04-25T22:17:08;6.20;;;3.50;;
9260;SDS011;4667;42.726;23.252;2023-04-25T22:19:36;2.70;;;1.83;;
9260;SDS011;4667;42.726;23.252;2023-04-25T22:22:02;2.43;;;2.20;;
9260;SDS011;4667;42.726;23.252;2023-04-25T22:24:29;2.50;;;2.07;;
9260;SDS011;4667;42.726;23.252;2023-04-25T22:26:58;4.97;;;2.73;;
9260;SDS011;4667;42.726;23.252;2023-04-25T22:29:24;3.30;;;2.53;;
9260;SDS011;4667;42.726;23.252;2023-04-25T22:31:51;2.20;;;1.70;;
9260;SDS011;4667;42.726;23.252;2023-04-25T22:34:18;2.07;;;1.80;;
9260;SDS011;4667;42.726;23.252;2023-04-25T22:36:44;2.70;;;1.90;;
9260;SDS011;4667;42.726;23.252;2023-04-25T22:39:11;2.23;;;2.00;;
9260;SDS011;4667;42.726;23.252;2023-04-25T22:41:40;2.67;;;2.13;;
9260;SDS011;4667;42.726;23.252;2023-04-25T22:44:08;3.00;;;2.00;;
9260;SDS011;4667;42.726;23.252;2023-04-25T22:46:35;2.33;;;2.13;;
9260;SDS011;4667;42.726;23.252;2023-04-25T22:49:01;2.23;;;1.77;;
9260;SDS011;4667;42.726;23.252;2023-04-25T22:51:28;2.60;;;2.33;;
9260;SDS011;4667;42.726;23.252;2023-04-25T22:53:55;2.30;;;2.03;;
9260;SDS011;4667;42.726;23.252;2023-04-25T22:56:21;4.13;;;1.80;;
9260;SDS011;4667;42.726;23.252;2023-04-25T22:58:48;2.13;;;1.93;;
9260;SDS011;4667;42.726;23.252;2023-04-25T23:01:16;2.97;;;2.07;;
9260;SDS011;4667;42.726;23.252;2023-04-25T23:03:43;2.10;;;1.73;;
9260;SDS011;4667;42.726;23.252;2023-04-25T23:06:09;1.93;;;1.70;;
9260;SDS011;4667;42.726;23.252;2023-04-25T23:08:37;1.93;;;1.50;;
9260;SDS011;4667;42.726;23.252;2023-04-25T23:11:04;2.67;;;2.47;;
9260;SDS011;4667;42.726;23.252;2023-04-25T23:13:31;2.23;;;2.00;;
9260;SDS011;4667;42.726;23.252;2023-04-25T23:16:03;3.53;;;2.63;;
9260;SDS011;4667;42.726;23.252;2023-04-25T23:18:31;1.83;;;1.60;;
9260;SDS011;4667;42.726;23.252;2023-04-25T23:20:58;3.00;;;2.10;;
9260;SDS011;4667;42.726;23.252;2023-04-25T23:23:26;1.83;;;1.70;;
9260;SDS011;4667;42.726;23.252;2023-04-25T23:25:52;2.47;;;2.27;;
9260;SDS011;4667;42.726;23.252;2023-04-25T23:28:21;2.43;;;2.20;;
9260;SDS011;4667;42.726;23.252;2023-04-25T23:30:48;2.37;;;1.97;;
9260;SDS011;4667;42.726;23.252;2023-04-25T23:33:14;4.10;;;2.77;;
9260;SDS011;4667;42.726;23.252;2023-04-25T23:35:42;3.20;;;1.97;;
9260;SDS011;4667;42.726;23.252;2023-04-25T23:38:09;3.33;;;1.70;;
9260;SDS011;4667;42.726;23.252;2023-04-25T23:40:36;2.17;;;1.97;;
9260;SDS011;4667;42.726;23.252;2023-04-25T23:43:02;2.83;;;2.30;;
9260;SDS011;4667;42.726;23.252;2023-04-25T23:45:29;2.77;;;2.33;;
9260;SDS011;4667;42.726;23.252;2023-04-25T23:47:55;3.40;;;2.40;;
9260;SDS011;4667;42.726;23.252;2023-04-25T23:50:22;3.60;;;2.43;;
9260;SDS011;4667;42.726;23.252;2023-04-25T23:52:49;3.07;;;2.00;;
9260;SDS011;4667;42.726;23.252;2023-04-25T23:55:16;3.33;;;2.63;;
9260;SDS011;4667;42.726;23.252;2023-04-25T23:57:42;3.07;;;2.33;;
